Time,TemperatureF,DewpointF,PressureIn,WindDirection,WindDirectionDegrees,WindSpeedMPH,WindSpeedGustMPH,Humidity,HourlyPrecipIn,Conditions,Clouds,dailyrainin,SoftwareType,DateUTC
2013-01-19 00:02:00,34.3,21.9,30.46,SW,218,12.0,28.0,60,0.00,,,0.00,meteohub,2013-01-19 05:02:00,
2013-01-19 00:03:00,34.3,21.0,30.46,SSW,195,23.0,28.0,58,0.00,,,0.00,meteohub,2013-01-19 05:03:00,
2013-01-19 00:04:00,34.3,21.9,30.46,SSW,204,19.0,28.0,60,0.00,,,0.00,meteohub,2013-01-19 05:04:00,
2013-01-19 00:09:00,34.5,21.7,30.46,SW,219,24.0,28.0,59,0.00,,,0.00,meteohub,2013-01-19 05:09:00,
2013-01-19 00:14:00,34.7,22.3,30.45,SW,226,17.0,28.0,60,0.00,,,0.00,meteohub,2013-01-19 05:14:00,
2013-01-19 00:19:00,34.7,22.6,30.45,South,191,19.0,24.0,61,0.00,,,0.00,meteohub,2013-01-19 05:19:00,
2013-01-19 00:24:00,34.9,22.8,30.45,SSW,202,11.0,24.0,61,0.00,,,0.00,meteohub,2013-01-19 05:24:00,
2013-01-19 00:29:00,34.9,23.2,30.45,SW,225,11.0,24.0,62,0.00,,,0.00,meteohub,2013-01-19 05:29:00,
2013-01-19 00:34:00,35.1,23.0,30.44,SSW,192,19.0,24.0,61,0.00,,,0.00,meteohub,2013-01-19 05:34:00,
2013-01-19 00:39:00,35.1,22.6,30.44,South,179,18.0,28.0,60,0.00,,,0.00,meteohub,2013-01-19 05:39:00,
2013-01-19 00:44:00,35.2,23.2,30.44,SSW,206,15.0,28.0,61,0.00,,,0.00,meteohub,2013-01-19 05:44:00,
2013-01-19 00:49:00,35.2,23.5,30.43,SW,220,15.0,28.0,62,0.00,,,0.00,meteohub,2013-01-19 05:49:00,
2013-01-19 00:54:00,35.2,23.5,30.43,SW,221,15.0,28.0,62,0.00,,,0.00,meteohub,2013-01-19 05:54:00,
2013-01-19 00:59:00,35.2,24.3,30.43,SSW,196,21.0,29.0,64,0.00,,,0.00,meteohub,2013-01-19 05:59:00,
2013-01-19 01:04:00,35.6,23.9,30.43,SSW,205,23.0,29.0,62,0.00,,,0.00,meteohub,2013-01-19 06:04:00,
2013-01-19 01:09:00,35.8,24.4,30.43,SSW,195,21.0,29.0,63,0.00,,,0.00,meteohub,2013-01-19 06:09:00,
2013-01-19 01:14:00,36.0,25.0,30.43,SSW,211,19.0,29.0,64,0.00,,,0.00,meteohub,2013-01-19 06:14:00,
2013-01-19 01:19:00,36.0,24.6,30.44,SSW,192,22.0,36.0,63,0.00,,,0.00,meteohub,2013-01-19 06:19:00,
2013-01-19 01:24:00,36.1,25.5,30.44,SSW,197,24.0,36.0,65,0.00,,,0.00,meteohub,2013-01-19 06:24:00,
2013-01-19 01:29:00,36.1,25.9,30.44,SSW,194,25.0,33.0,66,0.00,,,0.00,meteohub,2013-01-19 06:29:00,
2013-01-19 01:34:00,36.1,25.5,30.44,South,181,20.0,33.0,65,0.00,,,0.00,meteohub,2013-01-19 06:34:00,
2013-01-19 01:39:00,36.3,26.1,30.43,SSW,194,12.0,32.0,66,0.00,,,0.00,meteohub,2013-01-19 06:39:00,
2013-01-19 01:44:00,36.5,26.2,30.43,SSW,192,11.0,32.0,66,0.00,,,0.00,meteohub,2013-01-19 06:44:00,
2013-01-19 01:49:00,36.7,26.1,30.43,SSW,206,22.0,32.0,65,0.00,,,0.00,meteohub,2013-01-19 06:49:00,
2013-01-19 01:54:00,36.7,26.1,30.43,SSW,207,29.0,32.0,65,0.00,,,0.00,meteohub,2013-01-19 06:54:00,
2013-01-19 01:59:00,36.9,26.2,30.43,South,184,24.0,32.0,65,0.00,,,0.00,meteohub,2013-01-19 06:59:00,
2013-01-19 02:05:00,36.9,27.0,30.42,South,191,25.0,32.0,67,0.00,,,0.00,meteohub,2013-01-19 07:05:00,
2013-01-19 02:10:00,36.9,27.3,30.42,South,190,21.0,32.0,68,0.00,,,0.00,meteohub,2013-01-19 07:10:00,
2013-01-19 02:15:00,36.9,27.0,30.42,South,188,28.0,33.0,67,0.00,,,0.00,meteohub,2013-01-19 07:15:00,
2013-01-19 02:20:00,37.0,27.1,30.42,SSW,196,16.0,33.0,67,0.00,,,0.00,meteohub,2013-01-19 07:20:00,
2013-01-19 02:25:00,37.2,28.0,30.42,SSW,196,18.0,33.0,69,0.00,,,0.00,meteohub,2013-01-19 07:25:00,
2013-01-19 02:30:00,37.2,27.7,30.42,SSW,199,23.0,33.0,68,0.00,,,0.00,meteohub,2013-01-19 07:30:00,
2013-01-19 02:35:00,37.2,27.7,30.42,SSW,194,25.0,33.0,68,0.00,,,0.00,meteohub,2013-01-19 07:35:00,
2013-01-19 02:40:00,37.6,27.0,30.42,South,190,19.0,31.0,65,0.00,,,0.00,meteohub,2013-01-19 07:40:00,
2013-01-19 02:45:00,37.6,27.3,30.41,SSW,195,21.0,31.0,66,0.00,,,0.00,meteohub,2013-01-19 07:45:00,
2013-01-19 02:50:00,37.8,26.6,30.41,South,184,21.0,35.0,64,0.00,,,0.00,meteohub,2013-01-19 07:50:00,
2013-01-19 02:55:00,37.8,26.2,30.41,South,183,11.0,35.0,63,0.00,,,0.00,meteohub,2013-01-19 07:55:00,
2013-01-19 03:00:00,37.8,26.6,30.41,SSW,192,15.0,35.0,64,0.00,,,0.00,meteohub,2013-01-19 08:00:00,
2013-01-19 03:05:00,37.8,26.2,30.41,SSW,202,17.0,35.0,63,0.00,,,0.00,meteohub,2013-01-19 08:05:00,
2013-01-19 03:10:00,37.8,26.6,30.40,SSW,204,17.0,32.0,64,0.00,,,0.00,meteohub,2013-01-19 08:10:00,
2013-01-19 03:15:00,37.9,25.7,30.40,SSW,212,20.0,32.0,61,0.00,,,0.00,meteohub,2013-01-19 08:15:00,
2013-01-19 03:20:00,37.9,26.1,30.40,SW,215,14.0,34.0,62,0.00,,,0.00,meteohub,2013-01-19 08:20:00,
2013-01-19 03:25:00,37.9,26.1,30.40,SSW,193,22.0,34.0,62,0.00,,,0.00,meteohub,2013-01-19 08:25:00,
2013-01-19 03:30:00,37.9,25.7,30.40,SW,214,12.0,34.0,61,0.00,,,0.00,meteohub,2013-01-19 08:30:00,
2013-01-19 03:35:00,37.9,26.8,30.39,SSW,192,32.0,37.0,64,0.00,,,0.00,meteohub,2013-01-19 08:35:00,
2013-01-19 03:40:00,37.9,26.1,30.39,SW,217,15.0,37.0,62,0.00,,,0.00,meteohub,2013-01-19 08:40:00,
2013-01-19 03:45:00,38.1,27.3,30.39,South,175,27.0,37.0,65,0.00,,,0.00,meteohub,2013-01-19 08:45:00,
2013-01-19 03:50:00,38.3,27.5,30.39,SW,218,21.0,35.0,65,0.00,,,0.00,meteohub,2013-01-19 08:50:00,
2013-01-19 03:55:00,38.1,27.3,30.38,South,187,16.0,35.0,65,0.00,,,0.00,meteohub,2013-01-19 08:55:00,
2013-01-19 04:00:00,38.5,27.7,30.38,SSW,202,12.0,35.0,65,0.00,,,0.00,meteohub,2013-01-19 09:00:00,
2013-01-19 04:05:00,38.5,27.3,30.38,South,185,24.0,35.0,64,0.00,,,0.00,meteohub,2013-01-19 09:05:00,
2013-01-19 04:10:00,38.5,27.7,30.38,SW,217,24.0,35.0,65,0.00,,,0.00,meteohub,2013-01-19 09:10:00,
2013-01-19 04:15:00,38.5,27.7,30.38,SSW,198,19.0,36.0,65,0.00,,,0.00,meteohub,2013-01-19 09:15:00,
2013-01-19 04:20:00,38.7,27.1,30.38,SSW,198,18.0,36.0,63,0.00,,,0.00,meteohub,2013-01-19 09:20:00,
2013-01-19 04:25:00,38.7,28.2,30.37,SSW,196,28.0,36.0,66,0.00,,,0.00,meteohub,2013-01-19 09:25:00,
2013-01-19 04:30:00,38.8,27.7,30.37,SSW,200,22.0,38.0,64,0.00,,,0.00,meteohub,2013-01-19 09:30:00,
2013-01-19 04:35:00,39.0,27.5,30.37,SSW,200,17.0,38.0,63,0.00,,,0.00,meteohub,2013-01-19 09:35:00,
2013-01-19 04:40:00,39.0,27.5,30.37,SSE,158,23.0,38.0,63,0.00,,,0.00,meteohub,2013-01-19 09:40:00,
2013-01-19 04:45:00,39.0,28.9,30.37,SSW,196,8.0,38.0,67,0.00,,,0.00,meteohub,2013-01-19 09:45:00,
2013-01-19 04:50:00,39.0,28.6,30.37,SSW,194,31.0,38.0,66,0.00,,,0.00,meteohub,2013-01-19 09:50:00,
2013-01-19 04:55:00,39.2,29.1,30.37,SW,215,9.0,35.0,67,0.00,,,0.00,meteohub,2013-01-19 09:55:00,
2013-01-19 05:00:00,39.4,29.3,30.37,South,189,16.0,35.0,67,0.00,,,0.00,meteohub,2013-01-19 10:00:00,
2013-01-19 05:05:00,39.4,28.9,30.37,SSW,198,26.0,35.0,66,0.00,,,0.00,meteohub,2013-01-19 10:05:00,
2013-01-19 05:10:00,39.4,29.7,30.37,SSW,212,20.0,35.0,68,0.00,,,0.00,meteohub,2013-01-19 10:10:00,
2013-01-19 05:15:00,39.6,29.8,30.37,SSW,211,18.0,35.0,68,0.00,,,0.00,meteohub,2013-01-19 10:15:00,
2013-01-19 05:20:00,39.6,29.8,30.37,South,187,30.0,34.0,68,0.00,,,0.00,meteohub,2013-01-19 10:20:00,
2013-01-19 05:26:00,39.7,29.7,30.37,South,191,23.0,34.0,67,0.00,,,0.00,meteohub,2013-01-19 10:26:00,
2013-01-19 05:31:00,39.7,30.4,30.37,South,183,28.0,34.0,69,0.00,,,0.00,meteohub,2013-01-19 10:31:00,
2013-01-19 05:36:00,39.7,30.7,30.36,SSW,199,20.0,34.0,70,0.00,,,0.00,meteohub,2013-01-19 10:36:00,
2013-01-19 05:41:00,39.9,30.6,30.36,South,170,15.0,35.0,69,0.00,,,0.00,meteohub,2013-01-19 10:41:00,
2013-01-19 05:46:00,39.9,30.9,30.36,SSW,205,24.0,35.0,70,0.00,,,0.00,meteohub,2013-01-19 10:46:00,
2013-01-19 05:51:00,40.1,31.1,30.36,SSW,201,26.0,35.0,70,0.00,,,0.00,meteohub,2013-01-19 10:51:00,
2013-01-19 05:56:00,40.1,31.5,30.36,SSW,208,26.0,35.0,71,0.00,,,0.00,meteohub,2013-01-19 10:56:00,
2013-01-19 06:01:00,40.3,32.0,30.35,SSW,213,24.0,35.0,72,0.00,,,0.00,meteohub,2013-01-19 11:01:00,
2013-01-19 06:06:00,40.3,31.6,30.35,SSW,194,28.0,36.0,71,0.00,,,0.00,meteohub,2013-01-19 11:06:00,
2013-01-19 06:11:00,40.5,31.8,30.35,SSW,192,26.0,36.0,71,0.00,,,0.00,meteohub,2013-01-19 11:11:00,
2013-01-19 07:37:00,41.5,32.5,30.34,SSW,196,33.0,39.0,70,0.00,,,0.00,meteohub,2013-01-19 12:37:00,
2013-01-19 07:48:00,41.7,32.7,30.33,SSW,193,32.0,41.0,70,0.00,,,0.00,meteohub,2013-01-19 12:48:00,
2013-01-19 07:53:00,41.9,32.9,30.33,SSW,195,35.0,41.0,70,0.00,,,0.00,meteohub,2013-01-19 12:53:00,
2013-01-19 07:58:00,42.1,32.7,30.33,South,190,34.0,41.0,69,0.00,,,0.00,meteohub,2013-01-19 12:58:00,
2013-01-19 08:04:00,42.1,32.7,30.33,South,188,26.0,42.0,69,0.00,,,0.00,meteohub,2013-01-19 13:04:00,
2013-01-19 08:09:00,42.3,33.3,30.33,SSW,208,32.0,42.0,70,0.00,,,0.00,meteohub,2013-01-19 13:09:00,
2013-01-19 08:14:00,42.3,33.3,30.33,SSW,213,28.0,42.0,70,0.00,,,0.00,meteohub,2013-01-19 13:14:00,
2013-01-19 08:19:00,42.4,32.2,30.33,SSW,196,30.0,42.0,67,0.00,,,0.00,meteohub,2013-01-19 13:19:00,
2013-01-19 08:24:00,42.4,33.4,30.33,SSW,209,33.0,42.0,70,0.00,,,0.00,meteohub,2013-01-19 13:24:00,
2013-01-19 08:28:00,42.4,33.1,30.33,South,190,30.0,44.0,69,0.00,,,0.00,meteohub,2013-01-19 13:28:00,
2013-01-19 08:34:00,42.6,33.8,30.34,SSW,207,23.0,44.0,71,0.00,,,0.00,meteohub,2013-01-19 13:34:00,
2013-01-19 08:39:00,42.6,33.8,30.33,South,184,33.0,44.0,71,0.00,,,0.00,meteohub,2013-01-19 13:39:00,
2013-01-19 08:44:00,42.8,34.0,30.33,South,176,24.0,44.0,71,0.00,,,0.00,meteohub,2013-01-19 13:44:00,
2013-01-19 08:49:00,42.8,34.3,30.33,SSW,202,25.0,41.0,72,0.00,,,0.00,meteohub,2013-01-19 13:49:00,
2013-01-19 08:54:00,43.0,33.4,30.33,South,190,33.0,41.0,69,0.00,,,0.00,meteohub,2013-01-19 13:54:00,
2013-01-19 08:59:00,43.0,33.4,30.33,SW,214,24.0,41.0,69,0.00,,,0.00,meteohub,2013-01-19 13:59:00,
2013-01-19 09:04:00,43.2,34.0,30.33,SSW,198,31.0,41.0,70,0.00,,,0.00,meteohub,2013-01-19 14:04:00,
2013-01-19 09:09:00,43.2,33.6,30.33,SSW,211,27.0,41.0,69,0.00,,,0.00,meteohub,2013-01-19 14:09:00,
2013-01-19 09:14:00,43.2,33.3,30.33,South,190,35.0,43.0,68,0.00,,,0.00,meteohub,2013-01-19 14:14:00,
2013-01-19 09:19:00,43.3,34.2,30.32,SSW,192,15.0,43.0,70,0.00,,,0.00,meteohub,2013-01-19 14:19:00,
2013-01-19 09:24:00,43.3,34.5,30.33,SSW,205,30.0,43.0,71,0.00,,,0.00,meteohub,2013-01-19 14:24:00,
2013-01-19 09:29:00,43.3,34.5,30.32,South,187,34.0,43.0,71,0.00,,,0.00,meteohub,2013-01-19 14:29:00,
2013-01-19 09:34:00,43.5,34.0,30.32,SSW,207,36.0,44.0,69,0.00,,,0.00,meteohub,2013-01-19 14:34:00,
2013-01-19 09:39:00,43.3,34.5,30.32,SW,215,24.0,44.0,71,0.00,,,0.00,meteohub,2013-01-19 14:39:00,
2013-01-19 09:44:00,43.5,34.7,30.32,SSW,198,29.0,44.0,71,0.00,,,0.00,meteohub,2013-01-19 14:44:00,
2013-01-19 09:49:00,43.5,34.0,30.32,SSW,193,38.0,44.0,69,0.00,,,0.00,meteohub,2013-01-19 14:49:00,
2013-01-19 09:54:00,43.5,34.7,30.32,SSW,195,24.0,44.0,71,0.00,,,0.00,meteohub,2013-01-19 14:54:00,
2013-01-19 09:59:00,43.7,33.8,30.32,SSW,205,34.0,42.0,68,0.00,,,0.00,meteohub,2013-01-19 14:59:00,
2013-01-19 10:04:00,43.9,34.7,30.32,SSW,206,39.0,42.0,70,0.00,,,0.00,meteohub,2013-01-19 15:04:00,
2013-01-19 10:09:00,43.9,33.6,30.31,SSW,200,33.0,42.0,67,0.00,,,0.00,meteohub,2013-01-19 15:09:00,
2013-01-19 10:14:00,43.9,34.7,30.31,SSW,198,24.0,42.0,70,0.00,,,0.00,meteohub,2013-01-19 15:14:00,
2013-01-19 10:19:00,43.9,34.3,30.31,South,189,39.0,42.0,69,0.00,,,0.00,meteohub,2013-01-19 15:19:00,
2013-01-19 10:24:00,44.1,33.8,30.30,South,190,32.0,44.0,67,0.00,,,0.00,meteohub,2013-01-19 15:24:00,
2013-01-19 10:29:00,44.1,34.9,30.30,SSW,203,29.0,44.0,70,0.00,,,0.00,meteohub,2013-01-19 15:29:00,
2013-01-19 10:34:00,44.2,35.1,30.29,South,173,34.0,44.0,70,0.00,,,0.00,meteohub,2013-01-19 15:34:00,
2013-01-19 10:39:00,44.2,35.1,30.29,SSW,202,31.0,44.0,70,0.00,,,0.00,meteohub,2013-01-19 15:39:00,
2013-01-19 10:44:00,44.2,34.3,30.29,South,176,19.0,43.0,68,0.00,,,0.00,meteohub,2013-01-19 15:44:00,
2013-01-19 10:49:00,44.2,34.0,30.28,SSW,192,31.0,43.0,67,0.00,,,0.00,meteohub,2013-01-19 15:49:00,
2013-01-19 10:54:00,44.2,34.7,30.28,SSW,200,26.0,43.0,69,0.00,,,0.00,meteohub,2013-01-19 15:54:00,
2013-01-19 10:59:00,44.2,34.7,30.27,SSW,213,24.0,43.0,69,0.00,,,0.00,meteohub,2013-01-19 15:59:00,
2013-01-19 11:04:00,44.4,34.5,30.27,SSW,204,35.0,43.0,68,0.00,,,0.00,meteohub,2013-01-19 16:04:00,
2013-01-19 11:09:00,44.6,34.7,30.26,SW,218,26.0,40.0,68,0.00,,,0.00,meteohub,2013-01-19 16:09:00,
2013-01-19 11:14:00,44.4,34.2,30.26,SSW,198,29.0,40.0,67,0.00,,,0.00,meteohub,2013-01-19 16:14:00,
2013-01-19 11:19:00,44.8,34.2,30.25,SSW,198,38.0,40.0,66,0.00,,,0.00,meteohub,2013-01-19 16:19:00,
2013-01-19 11:24:00,44.8,34.5,30.25,SSW,202,33.0,40.0,67,0.00,,,0.00,meteohub,2013-01-19 16:24:00,
2013-01-19 11:29:00,44.8,34.9,30.25,SSE,168,21.0,40.0,68,0.00,,,0.00,meteohub,2013-01-19 16:29:00,
2013-01-19 11:34:00,45.0,34.7,30.25,South,175,20.0,44.0,67,0.00,,,0.00,meteohub,2013-01-19 16:34:00,
2013-01-19 11:39:00,45.1,36.0,30.25,SSW,195,12.0,44.0,70,0.00,,,0.00,meteohub,2013-01-19 16:39:00,
2013-01-19 11:45:00,45.3,35.1,30.25,SSW,208,20.0,44.0,67,0.00,,,0.00,meteohub,2013-01-19 16:45:00,
2013-01-19 11:50:00,45.3,35.8,30.24,SW,223,18.0,44.0,69,0.00,,,0.00,meteohub,2013-01-19 16:50:00,
2013-01-19 11:55:00,45.1,34.9,30.23,SW,226,18.0,44.0,67,0.00,,,0.00,meteohub,2013-01-19 16:55:00,
2013-01-19 12:00:00,45.1,35.2,30.23,South,182,18.0,35.0,68,0.00,,,0.00,meteohub,2013-01-19 17:00:00,
2013-01-19 12:05:00,45.3,35.4,30.23,SW,217,13.0,35.0,68,0.00,,,0.00,meteohub,2013-01-19 17:05:00,
2013-01-19 12:15:00,45.1,35.2,30.22,SSW,208,36.0,36.0,68,0.00,,,0.00,meteohub,2013-01-19 17:15:00,
2013-01-19 12:20:00,45.0,35.8,30.21,South,182,22.0,35.0,70,0.00,,,0.00,meteohub,2013-01-19 17:20:00,
2013-01-19 12:26:00,45.0,35.8,30.21,SSW,192,30.0,41.0,70,0.00,,,0.00,meteohub,2013-01-19 17:26:00,
2013-01-19 12:31:00,45.1,34.5,30.19,South,175,29.0,41.0,66,0.00,,,0.00,meteohub,2013-01-19 17:31:00,
2013-01-19 12:37:00,45.1,35.2,30.19,SSW,196,29.0,41.0,68,0.00,,,0.00,meteohub,2013-01-19 17:37:00,
2013-01-19 12:42:00,45.0,34.3,30.19,South,189,32.0,41.0,66,0.00,,,0.00,meteohub,2013-01-19 17:42:00,
2013-01-19 12:47:00,45.0,35.1,30.19,South,174,33.0,41.0,68,0.00,,,0.00,meteohub,2013-01-19 17:47:00,
2013-01-19 12:53:00,45.0,35.4,30.19,SSW,196,25.0,43.0,69,0.00,,,0.00,meteohub,2013-01-19 17:53:00,
2013-01-19 12:58:00,45.1,34.9,30.18,South,169,28.0,43.0,67,0.00,,,0.00,meteohub,2013-01-19 17:58:00,
2013-01-19 13:05:00,45.1,34.5,30.18,SSW,197,23.0,43.0,66,0.00,,,0.00,meteohub,2013-01-19 18:05:00,
2013-01-19 13:11:00,45.5,35.2,30.18,South,178,16.0,43.0,67,0.00,,,0.00,meteohub,2013-01-19 18:11:00,
2013-01-19 13:17:00,45.7,34.5,30.18,SSW,213,24.0,39.0,65,0.00,,,0.00,meteohub,2013-01-19 18:17:00,
2013-01-19 13:23:00,45.7,35.1,30.18,SSW,203,20.0,39.0,66,0.00,,,0.00,meteohub,2013-01-19 18:23:00,
2013-01-19 13:32:00,45.7,34.5,30.18,South,185,22.0,39.0,65,0.00,,,0.00,meteohub,2013-01-19 18:32:00,
2013-01-19 13:39:00,45.9,35.6,30.17,South,188,27.0,39.0,67,0.00,,,0.00,meteohub,2013-01-19 18:39:00,
2013-01-19 13:45:00,45.7,34.5,30.17,SSW,208,17.0,30.0,65,0.00,,,0.00,meteohub,2013-01-19 18:45:00,
2013-01-19 13:52:00,45.5,34.3,30.16,SSW,206,18.0,30.0,65,0.00,,,0.00,meteohub,2013-01-19 18:52:00,
2013-01-19 13:57:00,45.5,34.3,30.16,SSW,203,30.0,30.0,65,0.00,,,0.00,meteohub,2013-01-19 18:57:00,
2013-01-19 14:02:00,45.3,34.7,30.15,South,191,32.0,39.0,66,0.00,,,0.00,meteohub,2013-01-19 19:02:00,
2013-01-19 14:07:00,45.5,35.6,30.15,SSW,194,29.0,39.0,68,0.00,,,0.00,meteohub,2013-01-19 19:07:00,
2013-01-19 14:12:00,45.7,35.4,30.15,SSW,198,31.0,39.0,67,0.00,,,0.00,meteohub,2013-01-19 19:12:00,
2013-01-19 14:18:00,45.7,35.4,30.15,SSW,212,25.0,39.0,67,0.00,,,0.00,meteohub,2013-01-19 19:18:00,
2013-01-19 14:23:00,45.7,36.1,30.15,SSW,208,31.0,39.0,69,0.00,,,0.00,meteohub,2013-01-19 19:23:00,
2013-01-19 14:28:00,45.7,36.1,30.14,SSW,201,25.0,33.0,69,0.00,,,0.00,meteohub,2013-01-19 19:28:00,
2013-01-19 14:35:00,45.7,36.1,30.14,SSW,195,16.0,33.0,69,0.00,,,0.00,meteohub,2013-01-19 19:35:00,
2013-01-19 14:42:00,45.9,36.7,30.14,South,189,24.0,33.0,70,0.00,,,0.00,meteohub,2013-01-19 19:42:00,
2013-01-19 14:47:00,46.0,36.5,30.14,South,190,26.0,33.0,69,0.00,,,0.00,meteohub,2013-01-19 19:47:00,
2013-01-19 14:52:00,45.9,37.0,30.14,South,173,10.0,31.0,71,0.00,,,0.00,meteohub,2013-01-19 19:52:00,
2013-01-19 14:57:00,45.9,36.7,30.14,South,190,20.0,31.0,70,0.00,,,0.00,meteohub,2013-01-19 19:57:00,
2013-01-19 15:03:00,45.9,37.0,30.14,SW,225,17.0,31.0,71,0.00,,,0.00,meteohub,2013-01-19 20:03:00,
2013-01-19 15:08:00,45.9,37.4,30.14,SSW,192,18.0,31.0,72,0.00,,,0.00,meteohub,2013-01-19 20:08:00,
2013-01-19 15:17:00,45.7,37.6,30.14,SSW,192,10.0,31.0,73,0.00,,,0.00,meteohub,2013-01-19 20:17:00,
2013-01-19 15:22:00,45.7,37.6,30.14,SSW,211,10.0,31.0,73,0.00,,,0.00,meteohub,2013-01-19 20:22:00,
2013-01-19 15:27:00,45.9,37.4,30.13,SSW,194,25.0,32.0,72,0.00,,,0.00,meteohub,2013-01-19 20:27:00,
2013-01-19 15:32:00,45.9,37.8,30.13,South,189,26.0,32.0,73,0.00,,,0.00,meteohub,2013-01-19 20:32:00,
2013-01-19 15:38:00,45.9,37.8,30.13,SSW,192,32.0,32.0,73,0.00,,,0.00,meteohub,2013-01-19 20:38:00,
2013-01-19 15:45:00,45.9,37.8,30.12,SSW,199,29.0,32.0,73,0.00,,,0.00,meteohub,2013-01-19 20:45:00,
2013-01-19 15:50:00,45.7,37.9,30.12,South,184,25.0,35.0,74,0.00,,,0.00,meteohub,2013-01-19 20:50:00,
2013-01-19 15:57:00,45.7,38.3,30.12,SSW,205,26.0,35.0,75,0.00,,,0.00,meteohub,2013-01-19 20:57:00,
2013-01-19 16:02:00,45.7,38.3,30.12,SSW,202,24.0,35.0,75,0.00,,,0.00,meteohub,2013-01-19 21:02:00,
2013-01-19 16:10:00,45.7,37.9,30.12,SSW,196,26.0,35.0,74,0.00,,,0.00,meteohub,2013-01-19 21:10:00,
2013-01-19 16:17:00,45.5,38.1,30.12,SSW,193,26.0,33.0,75,0.00,,,0.00,meteohub,2013-01-19 21:17:00,
2013-01-19 16:22:00,45.5,38.1,30.11,South,187,22.0,33.0,75,0.00,,,0.00,meteohub,2013-01-19 21:22:00,
2013-01-19 16:29:00,45.5,38.3,30.11,South,190,14.0,33.0,76,0.00,,,0.00,meteohub,2013-01-19 21:29:00,
2013-01-19 16:34:00,45.3,38.1,30.11,SSW,197,24.0,33.0,76,0.00,,,0.00,meteohub,2013-01-19 21:34:00,
2013-01-19 16:40:00,45.3,38.1,30.11,South,191,25.0,33.0,76,0.00,,,0.00,meteohub,2013-01-19 21:40:00,
2013-01-19 16:47:00,45.3,38.5,30.11,SSW,200,23.0,30.0,77,0.00,,,0.00,meteohub,2013-01-19 21:47:00,
2013-01-19 16:52:00,45.3,38.5,30.10,SSW,198,18.0,30.0,77,0.00,,,0.00,meteohub,2013-01-19 21:52:00,
2013-01-19 16:57:00,45.1,38.3,30.11,SSW,203,23.0,30.0,77,0.00,,,0.00,meteohub,2013-01-19 21:57:00,
2013-01-19 17:02:00,45.3,38.5,30.10,SSW,193,23.0,30.0,77,0.00,,,0.00,meteohub,2013-01-19 22:02:00,
2013-01-19 17:09:00,45.3,38.5,30.10,SSW,200,28.0,30.0,77,0.00,,,0.00,meteohub,2013-01-19 22:09:00,
2013-01-19 17:14:00,45.3,38.1,30.10,SSW,205,24.0,30.0,76,0.00,,,0.00,meteohub,2013-01-19 22:14:00,
2013-01-19 17:22:00,45.5,38.7,30.10,South,188,24.0,30.0,77,0.00,,,0.00,meteohub,2013-01-19 22:22:00,
2013-01-19 17:27:00,45.3,38.5,30.10,SSW,195,25.0,30.0,77,0.00,,,0.00,meteohub,2013-01-19 22:27:00,
2013-01-19 17:33:00,45.5,38.7,30.10,SSW,198,23.0,30.0,77,0.00,,,0.00,meteohub,2013-01-19 22:33:00,
2013-01-19 17:42:00,45.3,38.5,30.10,SSW,194,16.0,29.0,77,0.00,,,0.00,meteohub,2013-01-19 22:42:00,
2013-01-19 17:49:00,45.3,38.8,30.10,SSW,192,21.0,29.0,78,0.00,,,0.00,meteohub,2013-01-19 22:49:00,
2013-01-19 17:54:00,45.7,38.8,30.10,SSW,194,22.0,29.0,77,0.00,,,0.00,meteohub,2013-01-19 22:54:00,
2013-01-19 17:59:00,45.3,38.8,30.09,SW,216,15.0,29.0,78,0.00,,,0.00,meteohub,2013-01-19 22:59:00,
2013-01-19 18:06:00,45.3,38.8,30.10,SW,217,9.0,29.0,78,0.00,,,0.00,meteohub,2013-01-19 23:06:00,
2013-01-19 18:12:00,45.3,38.8,30.09,SSW,203,11.0,29.0,78,0.00,,,0.00,meteohub,2013-01-19 23:12:00,
2013-01-19 18:19:00,45.3,39.2,30.09,SW,214,17.0,27.0,79,0.00,,,0.00,meteohub,2013-01-19 23:19:00,
2013-01-19 18:26:00,45.1,39.0,30.09,South,186,12.0,27.0,79,0.00,,,0.00,meteohub,2013-01-19 23:26:00,
2013-01-19 18:31:00,45.1,39.4,30.09,SSW,199,8.0,29.0,80,0.00,,,0.00,meteohub,2013-01-19 23:31:00,
2013-01-19 18:37:00,45.1,39.4,30.09,SW,221,12.0,29.0,80,0.00,,,0.00,meteohub,2013-01-19 23:37:00,
2013-01-19 18:42:00,45.3,39.6,30.09,South,191,13.0,29.0,80,0.00,,,0.00,meteohub,2013-01-19 23:42:00,
2013-01-19 18:47:00,45.3,39.6,30.09,South,186,19.0,26.0,80,0.00,,,0.00,meteohub,2013-01-19 23:47:00,
2013-01-19 18:53:00,45.5,39.7,30.09,SW,227,15.0,26.0,80,0.00,,,0.00,meteohub,2013-01-19 23:53:00,
2013-01-19 19:00:00,45.5,39.4,30.09,SW,214,18.0,26.0,79,0.00,,,0.00,meteohub,2013-01-20 00:00:00,
2013-01-19 19:06:00,45.9,39.4,30.09,South,190,20.0,26.0,78,0.00,,,0.00,meteohub,2013-01-20 00:06:00,
2013-01-19 19:14:00,45.9,39.4,30.09,South,186,19.0,29.0,78,0.00,,,0.00,meteohub,2013-01-20 00:14:00,
2013-01-19 19:19:00,46.0,39.2,30.09,SW,218,19.0,29.0,77,0.00,,,0.00,meteohub,2013-01-20 00:19:00,
2013-01-19 19:27:00,46.0,39.2,30.09,SW,221,20.0,27.0,77,0.00,,,0.00,meteohub,2013-01-20 00:27:00,
2013-01-19 19:32:00,45.9,39.4,30.09,SSW,207,22.0,27.0,78,0.00,,,0.00,meteohub,2013-01-20 00:32:00,
2013-01-19 19:37:00,45.9,39.4,30.08,SW,215,18.0,27.0,78,0.00,,,0.00,meteohub,2013-01-20 00:37:00,
2013-01-19 19:43:00,45.7,39.2,30.08,SSW,200,18.0,27.0,78,0.00,,,0.00,meteohub,2013-01-20 00:43:00,
2013-01-19 19:48:00,45.7,39.6,30.08,SSW,202,10.0,26.0,79,0.00,,,0.00,meteohub,2013-01-20 00:48:00,
2013-01-19 19:53:00,45.7,39.6,30.08,SW,217,13.0,26.0,79,0.00,,,0.00,meteohub,2013-01-20 00:53:00,
2013-01-19 19:59:00,45.5,39.4,30.08,SSW,213,18.0,26.0,79,0.00,,,0.00,meteohub,2013-01-20 00:59:00,
2013-01-19 20:07:00,45.3,39.2,30.07,SW,219,16.0,23.0,79,0.00,,,0.00,meteohub,2013-01-20 01:07:00,
2013-01-19 20:12:00,45.3,39.2,30.07,SSW,213,17.0,23.0,79,0.00,,,0.00,meteohub,2013-01-20 01:12:00,
2013-01-19 20:18:00,45.3,39.2,30.07,SSW,213,18.0,23.0,79,0.00,,,0.00,meteohub,2013-01-20 01:18:00,
2013-01-19 20:24:00,45.3,39.2,30.07,SSW,206,14.0,23.0,79,0.00,,,0.00,meteohub,2013-01-20 01:24:00,
2013-01-19 20:32:00,45.3,39.2,30.06,SW,224,16.0,22.0,79,0.00,,,0.00,meteohub,2013-01-20 01:32:00,
2013-01-19 20:37:00,45.7,39.6,30.06,SSW,207,18.0,22.0,79,0.00,,,0.00,meteohub,2013-01-20 01:37:00,
2013-01-19 20:50:00,45.9,39.4,30.06,SSW,194,12.0,22.0,78,0.00,,,0.00,meteohub,2013-01-20 01:50:00,
2013-01-19 20:55:00,45.7,39.2,30.06,SSW,213,19.0,24.0,78,0.00,,,0.00,meteohub,2013-01-20 01:55:00,
2013-01-19 21:02:00,45.5,39.0,30.06,SW,219,17.0,24.0,78,0.00,,,0.00,meteohub,2013-01-20 02:02:00,
2013-01-19 21:07:00,45.3,38.8,30.06,SSW,210,18.0,24.0,78,0.00,,,0.00,meteohub,2013-01-20 02:07:00,
2013-01-19 21:12:00,45.5,39.0,30.06,SSW,211,16.0,24.0,78,0.00,,,0.00,meteohub,2013-01-20 02:12:00,
2013-01-19 21:17:00,45.7,39.2,30.05,SSW,202,9.0,24.0,78,0.00,,,0.00,meteohub,2013-01-20 02:17:00,
2013-01-19 21:22:00,45.7,39.2,30.05,SW,214,17.0,24.0,78,0.00,,,0.00,meteohub,2013-01-20 02:22:00,
2013-01-19 21:28:00,45.9,39.4,30.05,SSW,207,19.0,24.0,78,0.00,,,0.00,meteohub,2013-01-20 02:28:00,
2013-01-19 21:33:00,45.9,38.7,30.04,SSW,211,11.0,21.0,76,0.00,,,0.00,meteohub,2013-01-20 02:33:00,
2013-01-19 21:38:00,45.9,38.7,30.04,SW,215,16.0,21.0,76,0.00,,,0.00,meteohub,2013-01-20 02:38:00,
2013-01-19 21:43:00,46.0,38.3,30.04,SSW,200,16.0,24.0,74,0.00,,,0.00,meteohub,2013-01-20 02:43:00,
2013-01-19 21:49:00,46.0,38.5,30.04,SSW,197,11.0,24.0,75,0.00,,,0.00,meteohub,2013-01-20 02:49:00,
2013-01-19 21:55:00,46.0,38.3,30.04,South,185,19.0,26.0,74,0.00,,,0.00,meteohub,2013-01-20 02:55:00,
2013-01-19 22:00:00,46.0,38.3,30.04,SSW,213,15.0,26.0,74,0.00,,,0.00,meteohub,2013-01-20 03:00:00,
2013-01-19 22:07:00,46.0,38.3,30.04,SW,221,16.0,26.0,74,0.00,,,0.00,meteohub,2013-01-20 03:07:00,
2013-01-19 22:12:00,45.9,38.3,30.04,SSW,210,13.0,26.0,75,0.00,,,0.00,meteohub,2013-01-20 03:12:00,
2013-01-19 22:17:00,45.9,38.3,30.03,South,186,19.0,-999.0,75,0.00,,,0.00,meteohub,2013-01-20 03:17:00,
2013-01-19 22:22:00,45.9,38.3,30.03,SW,221,13.0,27.0,75,0.00,,,0.00,meteohub,2013-01-20 03:22:00,
2013-01-19 22:28:00,45.9,38.7,30.03,SW,220,6.0,27.0,76,0.00,,,0.00,meteohub,2013-01-20 03:28:00,
2013-01-19 22:33:00,46.0,38.8,30.02,SSW,205,21.0,24.0,76,0.00,,,0.00,meteohub,2013-01-20 03:33:00,
2013-01-19 22:38:00,46.2,39.0,30.02,SSW,199,27.0,27.0,76,0.00,,,0.00,meteohub,2013-01-20 03:38:00,
2013-01-19 22:47:00,46.4,39.9,30.01,SSW,194,29.0,29.0,78,0.00,,,0.00,meteohub,2013-01-20 03:47:00,
2013-01-19 22:52:00,46.6,40.1,30.01,South,188,30.0,37.0,78,0.00,,,0.00,meteohub,2013-01-20 03:52:00,
2013-01-19 22:57:00,46.6,40.1,30.01,SSW,194,28.0,37.0,78,0.00,,,0.00,meteohub,2013-01-20 03:57:00,
2013-01-19 23:03:00,46.6,40.5,30.00,SSW,201,26.0,37.0,79,0.00,,,0.00,meteohub,2013-01-20 04:03:00,
2013-01-19 23:08:00,46.6,40.5,30.00,SSW,193,25.0,37.0,79,0.00,,,0.00,meteohub,2013-01-20 04:08:00,
2013-01-19 23:17:00,46.6,40.5,30.00,South,191,28.0,39.0,79,0.00,,,0.00,meteohub,2013-01-20 04:17:00,
2013-01-19 23:24:00,46.4,40.8,29.99,South,178,25.0,34.0,81,0.00,,,0.00,meteohub,2013-01-20 04:24:00,
2013-01-19 23:32:00,46.6,40.8,29.99,SSW,200,31.0,38.0,80,0.00,,,0.00,meteohub,2013-01-20 04:32:00,
2013-01-19 23:37:00,46.4,40.8,29.99,SW,221,26.0,38.0,81,0.00,,,0.00,meteohub,2013-01-20 04:37:00,
2013-01-19 23:42:00,46.4,40.6,29.99,SSW,208,27.0,38.0,80,0.00,,,0.00,meteohub,2013-01-20 04:42:00,
2013-01-19 23:49:00,46.2,40.6,29.99,SSW,195,26.0,38.0,81,0.00,,,0.00,meteohub,2013-01-20 04:49:00,
2013-01-19 23:58:00,46.6,40.8,29.98,SSW,196,33.0,38.0,80,0.00,,,0.00,meteohub,2013-01-20 04:58:00,